createdAt,value
2018-04-14T00:02:17.636Z,2.03
2018-04-14T00:08:08.318Z,1.78
2018-04-14T00:13:58.960Z,1.95
2018-04-14T00:19:49.608Z,1.99
2018-04-14T00:25:40.257Z,1.74
2018-04-14T00:31:30.894Z,2.12
2018-04-14T00:37:21.531Z,2.17
2018-04-14T00:43:12.233Z,2.12
2018-04-14T00:49:02.937Z,2.09
2018-04-14T00:54:53.548Z,2.43
2018-04-14T01:00:44.180Z,2.45
2018-04-14T01:06:34.846Z,2.01
2018-04-14T01:12:25.518Z,2.15
2018-04-14T01:18:16.146Z,2.25
2018-04-14T01:24:06.801Z,2.66
2018-04-14T01:29:57.531Z,2.89
2018-04-14T01:35:48.099Z,2.44
2018-04-14T01:41:38.772Z,3.07
2018-04-14T01:47:29.403Z,2.8
2018-04-14T01:53:20.117Z,3.06
2018-04-14T01:59:10.769Z,3.18
2018-04-14T02:05:01.387Z,3.63
2018-04-14T02:10:52.021Z,3.79
2018-04-14T02:16:42.759Z,3.89
2018-04-14T02:22:33.329Z,4.58
2018-04-14T02:28:24.027Z,4.47
2018-04-14T02:34:14.682Z,4.27
2018-04-14T02:40:05.315Z,4.48
2018-04-14T02:45:55.967Z,4.61
2018-04-14T02:51:46.606Z,5.59
2018-04-14T02:57:37.273Z,4.58
2018-04-14T03:03:27.931Z,4.76
2018-04-14T03:09:18.603Z,5.3
2018-04-14T03:15:09.222Z,5.36
2018-04-14T03:20:59.877Z,4.51
2018-04-14T03:26:50.579Z,5.28
2018-04-14T03:32:41.229Z,4.72
2018-04-14T03:38:31.831Z,5.34
2018-04-14T03:44:22.497Z,4.64
2018-04-14T03:50:13.153Z,4.6
2018-04-14T03:56:03.798Z,4.91
2018-04-14T04:01:54.413Z,10.79
2018-04-14T04:07:45.051Z,25.27
2018-04-14T04:13:35.720Z,18.27
2018-04-14T04:19:26.507Z,16.04
2018-04-14T04:25:17.042Z,14.84
2018-04-14T04:31:07.674Z,11.82
2018-04-14T04:36:58.311Z,12.62
2018-04-14T04:42:48.953Z,13.94
2018-04-14T04:48:39.603Z,12.7
2018-04-14T04:54:30.258Z,13.5
2018-04-14T05:00:21.029Z,11.57
2018-04-14T05:06:11.590Z,12.04
2018-04-14T05:12:02.197Z,10.64
2018-04-14T05:17:52.842Z,10.86
2018-04-14T05:23:43.465Z,10.38
2018-04-14T05:29:34.091Z,9.7
2018-04-14T05:35:24.787Z,19.89
2018-04-14T05:41:15.462Z,16.74
2018-04-14T05:47:06.101Z,11.26
2018-04-14T05:52:56.758Z,9.48
2018-04-14T05:58:47.393Z,8.9
2018-04-14T06:04:38.058Z,7.98
2018-04-14T06:10:28.756Z,7.36
2018-04-14T06:16:19.301Z,7.38
2018-04-14T06:22:09.958Z,6.28
2018-04-14T06:28:00.659Z,5.67
2018-04-14T06:33:51.295Z,2.48
2018-04-14T06:39:41.907Z,2.35
2018-04-14T06:45:32.568Z,2.22
2018-04-14T06:51:23.284Z,3.65
2018-04-14T06:57:13.864Z,4.46
2018-04-14T07:03:04.516Z,4.17
2018-04-14T07:08:55.241Z,3.21
2018-04-14T07:14:45.919Z,3.66
2018-04-14T07:20:36.624Z,2.92
2018-04-14T07:26:27.281Z,2.36
2018-04-14T07:32:17.874Z,3.22
2018-04-14T07:38:08.563Z,2.28
2018-04-14T07:43:59.345Z,2.36
2018-04-14T07:49:49.906Z,3.34
2018-04-14T07:55:40.631Z,2.79
2018-04-14T08:01:31.339Z,2.86
2018-04-14T08:07:22.007Z,2.5
2018-04-14T08:13:12.700Z,3.09
2018-04-14T08:19:03.347Z,2.59
2018-04-14T08:24:54.040Z,2.49
2018-04-14T08:30:44.733Z,2.88
2018-04-14T08:36:35.412Z,2.46
2018-04-14T08:42:26.113Z,1.9
2018-04-14T08:48:16.831Z,1.99
2018-04-14T08:54:07.463Z,2.14
2018-04-14T08:59:58.240Z,2.95
2018-04-14T09:05:48.889Z,2.72
2018-04-14T09:11:39.560Z,2.75
2018-04-14T09:17:30.289Z,2.1
2018-04-14T09:23:21.033Z,2.39
2018-04-14T09:29:11.727Z,2.06
2018-04-14T09:35:02.396Z,2.31
2018-04-14T09:40:53.066Z,1.96
2018-04-14T09:46:43.749Z,2.98
2018-04-14T09:52:34.463Z,2.06
2018-04-14T09:58:25.256Z,2.48
2018-04-14T10:04:15.901Z,2.72
2018-04-14T10:10:06.647Z,2.53
2018-04-14T10:15:57.332Z,2.85
2018-04-14T10:21:48.032Z,2.78
2018-04-14T10:27:38.724Z,3.22
2018-04-14T10:33:29.429Z,2.29
2018-04-14T10:39:20.206Z,4.2
2018-04-14T10:45:10.858Z,2.27
2018-04-14T10:51:01.603Z,2.47
2018-04-14T10:56:52.299Z,2.61
2018-04-14T11:02:43.035Z,2.42
2018-04-14T11:08:33.739Z,2.2
2018-04-14T11:14:24.422Z,3.31
2018-04-14T11:20:15.195Z,2.51
2018-04-14T11:26:05.896Z,2.63
2018-04-14T11:31:56.569Z,3.12
2018-04-14T11:37:47.345Z,2.14
2018-04-14T11:43:38.133Z,2.11
2018-04-14T11:49:28.747Z,2.27
2018-04-14T11:55:19.525Z,2.62
2018-04-14T12:01:10.255Z,2.83
2018-04-14T12:07:01.032Z,3.08
2018-04-14T12:12:51.662Z,3.03
2018-04-14T12:18:42.410Z,3.22
2018-04-14T12:24:33.106Z,2.91
2018-04-14T12:30:23.917Z,2.81
2018-04-14T12:36:14.576Z,3.23
2018-04-14T12:42:05.322Z,4.11
2018-04-14T12:47:56.049Z,2.9
2018-04-14T12:53:46.804Z,3.71
2018-04-14T12:59:37.479Z,3.99
2018-04-14T13:05:28.175Z,3.7
2018-04-14T13:11:18.963Z,3.22
2018-04-14T13:17:09.684Z,3.24
2018-04-14T13:23:00.410Z,3.18
2018-04-14T13:28:51.175Z,3.68
2018-04-14T13:34:41.861Z,3.91
2018-04-14T13:40:32.607Z,3.48
2018-04-14T13:46:23.308Z,3.83
2018-04-14T13:52:13.998Z,4.29
2018-04-14T13:58:04.760Z,3.15
2018-04-14T14:03:55.475Z,3.42
2018-04-14T14:09:46.192Z,3.8
2018-04-14T14:15:36.906Z,4.1
2018-04-14T14:21:27.627Z,4.18
2018-04-14T14:27:18.409Z,3.37
2018-04-14T14:33:09.127Z,3.76
2018-04-14T14:38:59.809Z,4.21
2018-04-14T14:44:50.518Z,4.13
2018-04-14T14:50:41.338Z,4.72
2018-04-14T14:56:31.994Z,3.3
2018-04-14T15:02:22.710Z,4.05
2018-04-14T15:08:13.462Z,3.47
2018-04-14T15:14:04.182Z,3.65
2018-04-14T15:19:54.882Z,3.79
2018-04-14T15:25:45.599Z,4.32
2018-04-14T15:31:36.268Z,3.44
2018-04-14T15:37:27.041Z,3.62
2018-04-14T15:43:17.720Z,4.01
2018-04-14T15:49:08.424Z,4.24
2018-04-14T15:54:59.149Z,4.04
2018-04-14T16:00:49.834Z,3.69
2018-04-14T16:06:40.543Z,3.84
2018-04-14T16:12:31.293Z,3.96
2018-04-14T16:18:21.982Z,4.04
2018-04-14T16:24:12.704Z,3.99
2018-04-14T16:30:03.425Z,3.45
2018-04-14T16:35:54.114Z,3.36
2018-04-14T16:41:44.855Z,2.89
2018-04-14T16:47:35.505Z,3.37
2018-04-14T16:53:26.255Z,3.19
2018-04-14T16:59:16.985Z,2.53
2018-04-14T17:05:07.672Z,2.16
2018-04-14T17:10:58.402Z,1.67
2018-04-14T17:16:49.078Z,1.54
2018-04-14T17:22:39.806Z,3.48
2018-04-14T17:28:30.483Z,3.11
2018-04-14T17:34:21.221Z,2.85
2018-04-14T17:40:11.875Z,3
2018-04-14T17:46:02.591Z,1.63
2018-04-14T17:51:53.299Z,1.75
2018-04-14T17:57:43.953Z,1.74
2018-04-14T18:03:34.690Z,2.32
2018-04-14T18:09:25.405Z,1.95
2018-04-14T18:15:16.088Z,1.83
2018-04-14T18:21:06.842Z,1.61
2018-04-14T18:26:57.505Z,1.7
2018-04-14T18:32:48.211Z,1.77
2018-04-14T18:38:38.871Z,1.72
2018-04-14T18:44:29.624Z,2.1
2018-04-14T18:50:20.321Z,2.01
2018-04-14T18:56:11.072Z,1.88
2018-04-14T19:02:01.674Z,2.59
2018-04-14T19:07:52.439Z,1.93
2018-04-14T19:13:43.107Z,2.71
2018-04-14T19:19:33.774Z,1.88
2018-04-14T19:25:24.491Z,1.6
2018-04-14T19:31:15.214Z,2.47
2018-04-14T19:37:05.902Z,1.74
2018-04-14T19:42:56.554Z,2.42
2018-04-14T19:48:47.265Z,1.58
2018-04-14T19:54:37.945Z,2.68
2018-04-14T20:00:28.665Z,1.91
2018-04-14T20:06:19.361Z,3.14
2018-04-14T20:12:10.053Z,1.97
2018-04-14T20:18:00.743Z,1.66
2018-04-14T20:23:51.462Z,1.53
2018-04-14T20:29:42.142Z,1.22
2018-04-14T20:35:32.826Z,1.28
2018-04-14T20:41:23.545Z,1.72
2018-04-14T20:47:14.233Z,1.3
2018-04-14T20:53:04.983Z,1.96
2018-04-14T20:58:55.670Z,2.89
2018-04-14T21:04:46.292Z,3.99
2018-04-14T21:10:36.993Z,5.42
2018-04-14T21:16:27.694Z,2.83
2018-04-14T21:22:18.336Z,1.55
2018-04-14T21:28:09.058Z,1.49
2018-04-14T21:33:59.745Z,2.2
2018-04-14T21:39:50.423Z,1.67
2018-04-14T21:45:41.089Z,3.79
2018-04-14T21:51:31.877Z,2.43
2018-04-14T21:57:22.458Z,2.11
2018-04-14T22:03:13.156Z,2.76
2018-04-14T22:09:03.894Z,2.34
2018-04-14T22:14:54.595Z,1.43
2018-04-14T22:20:45.235Z,1.46
2018-04-14T22:26:35.952Z,2.08
2018-04-14T22:32:26.640Z,1.56
2018-04-14T22:38:17.330Z,1.64
2018-04-14T22:44:08.001Z,2.01
2018-04-14T22:49:58.729Z,1.85
2018-04-14T22:55:49.961Z,1.95
2018-04-14T23:01:40.124Z,1.91
2018-04-14T23:07:30.854Z,1.57
2018-04-14T23:13:21.499Z,2.31
2018-04-14T23:19:12.190Z,1.69
2018-04-14T23:25:02.927Z,1.75
2018-04-14T23:30:53.621Z,1.8
2018-04-14T23:36:44.294Z,2.51
2018-04-14T23:42:34.985Z,2.02
2018-04-14T23:48:25.601Z,2.22
2018-04-14T23:54:16.361Z,2.42
